sensor_id;sensor_type;location;lat;lon;timestamp;temperature;humidity
35258;DHT22;21385;50.878;8.050;2023-03-23T00:01:26;12.40;99.90
35258;DHT22;21385;50.878;8.050;2023-03-23T00:03:55;12.30;99.90
35258;DHT22;21385;50.878;8.050;2023-03-23T00:06:23;12.20;99.90
35258;DHT22;21385;50.878;8.050;2023-03-23T00:08:50;12.10;99.90
35258;DHT22;21385;50.878;8.050;2023-03-23T00:11:20;12.10;99.90
35258;DHT22;21385;50.878;8.050;2023-03-23T00:13:49;12.10;99.90
35258;DHT22;21385;50.878;8.050;2023-03-23T00:16:20;12.20;99.90
35258;DHT22;21385;50.878;8.050;2023-03-23T00:18:54;12.20;99.90
35258;DHT22;21385;50.878;8.050;2023-03-23T00:21:22;12.20;99.90
35258;DHT22;21385;50.878;8.050;2023-03-23T00:23:59;12.20;99.90
35258;DHT22;21385;50.878;8.050;2023-03-23T00:26:25;12.20;99.90
35258;DHT22;21385;50.878;8.050;2023-03-23T00:28:54;12.10;99.90
35258;DHT22;21385;50.878;8.050;2023-03-23T00:31:19;12.10;99.90
35258;DHT22;21385;50.878;8.050;2023-03-23T00:33:45;12.00;99.90
35258;DHT22;21385;50.878;8.050;2023-03-23T00:36:12;12.00;99.90
35258;DHT22;21385;50.878;8.050;2023-03-23T00:38:39;12.00;99.90
35258;DHT22;21385;50.878;8.050;2023-03-23T00:41:05;12.00;99.90
35258;DHT22;21385;50.878;8.050;2023-03-23T00:43:32;12.00;99.90
35258;DHT22;21385;50.878;8.050;2023-03-23T00:46:01;12.10;99.90
35258;DHT22;21385;50.878;8.050;2023-03-23T00:48:28;12.10;99.90
35258;DHT22;21385;50.878;8.050;2023-03-23T00:50:55;12.10;99.90
35258;DHT22;21385;50.878;8.050;2023-03-23T00:53:21;12.20;99.90
35258;DHT22;21385;50.878;8.050;2023-03-23T00:55:48;12.20;99.90
35258;DHT22;21385;50.878;8.050;2023-03-23T00:58:14;12.10;99.90
35258;DHT22;21385;50.878;8.050;2023-03-23T01:00:41;12.10;99.90
35258;DHT22;21385;50.878;8.050;2023-03-23T01:03:08;12.10;99.90
35258;DHT22;21385;50.878;8.050;2023-03-23T01:05:39;12.20;99.90
35258;DHT22;21385;50.878;8.050;2023-03-23T01:08:05;12.20;99.90
35258;DHT22;21385;50.878;8.050;2023-03-23T01:10:32;12.20;99.90
35258;DHT22;21385;50.878;8.050;2023-03-23T01:13:00;12.10;99.90
35258;DHT22;21385;50.878;8.050;2023-03-23T01:15:29;12.00;99.90
35258;DHT22;21385;50.878;8.050;2023-03-23T01:17:55;12.00;99.90
35258;DHT22;21385;50.878;8.050;2023-03-23T01:20:21;12.00;99.90
35258;DHT22;21385;50.878;8.050;2023-03-23T01:22:47;12.00;99.90
35258;DHT22;21385;50.878;8.050;2023-03-23T01:25:14;12.00;99.90
35258;DHT22;21385;50.878;8.050;2023-03-23T01:27:40;12.00;99.90
35258;DHT22;21385;50.878;8.050;2023-03-23T01:30:07;12.00;99.90
35258;DHT22;21385;50.878;8.050;2023-03-23T01:32:33;11.90;99.90
35258;DHT22;21385;50.878;8.050;2023-03-23T01:34:58;11.90;99.90
35258;DHT22;21385;50.878;8.050;2023-03-23T01:37:24;11.90;99.90
35258;DHT22;21385;50.878;8.050;2023-03-23T01:39:55;11.90;99.90
35258;DHT22;21385;50.878;8.050;2023-03-23T01:42:26;12.00;99.90
35258;DHT22;21385;50.878;8.050;2023-03-23T01:47:40;11.80;99.90
35258;DHT22;21385;50.878;8.050;2023-03-23T01:50:05;11.80;99.90
35258;DHT22;21385;50.878;8.050;2023-03-23T01:52:31;11.80;99.90
35258;DHT22;21385;50.878;8.050;2023-03-23T01:54:59;11.70;99.90
35258;DHT22;21385;50.878;8.050;2023-03-23T01:57:25;11.70;99.90
35258;DHT22;21385;50.878;8.050;2023-03-23T01:59:57;11.80;99.90
35258;DHT22;21385;50.878;8.050;2023-03-23T02:02:24;11.80;99.90
35258;DHT22;21385;50.878;8.050;2023-03-23T02:04:51;11.70;99.90
35258;DHT22;21385;50.878;8.050;2023-03-23T02:07:19;11.50;99.90
35258;DHT22;21385;50.878;8.050;2023-03-23T02:09:45;11.50;99.90
35258;DHT22;21385;50.878;8.050;2023-03-23T02:12:11;11.40;99.90
35258;DHT22;21385;50.878;8.050;2023-03-23T02:14:37;11.40;99.90
35258;DHT22;21385;50.878;8.050;2023-03-23T02:23:11;11.50;99.90
35258;DHT22;21385;50.878;8.050;2023-03-23T02:33:38;11.40;99.90
35258;DHT22;21385;50.878;8.050;2023-03-23T02:36:30;11.50;99.90
35258;DHT22;21385;50.878;8.050;2023-03-23T02:39:21;11.40;99.90
35258;DHT22;21385;50.878;8.050;2023-03-23T02:42:07;11.40;99.90
35258;DHT22;21385;50.878;8.050;2023-03-23T02:44:36;11.20;99.90
35258;DHT22;21385;50.878;8.050;2023-03-23T02:47:06;11.30;99.90
35258;DHT22;21385;50.878;8.050;2023-03-23T02:49:35;11.30;99.90
35258;DHT22;21385;50.878;8.050;2023-03-23T02:52:06;11.20;99.90
35258;DHT22;21385;50.878;8.050;2023-03-23T02:54:32;11.30;99.90
35258;DHT22;21385;50.878;8.050;2023-03-23T02:56:58;11.20;99.90
35258;DHT22;21385;50.878;8.050;2023-03-23T02:59:24;11.20;99.90
35258;DHT22;21385;50.878;8.050;2023-03-23T03:04:28;11.20;99.90
35258;DHT22;21385;50.878;8.050;2023-03-23T03:07:08;11.20;99.90
35258;DHT22;21385;50.878;8.050;2023-03-23T03:09:54;11.20;99.90
35258;DHT22;21385;50.878;8.050;2023-03-23T03:12:30;11.30;99.90
35258;DHT22;21385;50.878;8.050;2023-03-23T03:17:47;11.30;99.90
35258;DHT22;21385;50.878;8.050;2023-03-23T03:20:16;11.30;99.90
35258;DHT22;21385;50.878;8.050;2023-03-23T03:22:44;11.40;99.90
35258;DHT22;21385;50.878;8.050;2023-03-23T03:25:12;11.30;99.90
35258;DHT22;21385;50.878;8.050;2023-03-23T03:27:40;11.40;99.90
35258;DHT22;21385;50.878;8.050;2023-03-23T03:30:09;11.40;99.90
35258;DHT22;21385;50.878;8.050;2023-03-23T03:32:43;11.40;99.90
35258;DHT22;21385;50.878;8.050;2023-03-23T03:35:12;11.40;99.90
35258;DHT22;21385;50.878;8.050;2023-03-23T03:37:38;11.30;99.90
35258;DHT22;21385;50.878;8.050;2023-03-23T03:40:14;11.20;99.90
35258;DHT22;21385;50.878;8.050;2023-03-23T03:42:42;11.20;99.90
35258;DHT22;21385;50.878;8.050;2023-03-23T03:45:09;11.20;99.90
35258;DHT22;21385;50.878;8.050;2023-03-23T03:47:35;11.20;99.90
35258;DHT22;21385;50.878;8.050;2023-03-23T03:50:01;11.30;99.90
35258;DHT22;21385;50.878;8.050;2023-03-23T03:52:27;11.30;99.90
35258;DHT22;21385;50.878;8.050;2023-03-23T03:54:53;11.30;99.90
35258;DHT22;21385;50.878;8.050;2023-03-23T03:57:19;11.30;99.90
35258;DHT22;21385;50.878;8.050;2023-03-23T03:59:45;11.30;99.90
35258;DHT22;21385;50.878;8.050;2023-03-23T04:02:11;11.30;99.90
35258;DHT22;21385;50.878;8.050;2023-03-23T04:04:39;11.30;99.90
35258;DHT22;21385;50.878;8.050;2023-03-23T04:07:07;11.30;99.90
35258;DHT22;21385;50.878;8.050;2023-03-23T04:09:36;11.30;99.90
35258;DHT22;21385;50.878;8.050;2023-03-23T04:12:02;11.20;99.90
35258;DHT22;21385;50.878;8.050;2023-03-23T04:14:28;11.20;99.90
35258;DHT22;21385;50.878;8.050;2023-03-23T04:16:53;11.10;99.90
35258;DHT22;21385;50.878;8.050;2023-03-23T04:19:22;11.00;99.90
35258;DHT22;21385;50.878;8.050;2023-03-23T04:21:48;11.00;99.90
35258;DHT22;21385;50.878;8.050;2023-03-23T04:24:15;11.00;99.90
35258;DHT22;21385;50.878;8.050;2023-03-23T04:26:40;11.00;99.90
35258;DHT22;21385;50.878;8.050;2023-03-23T04:29:07;11.00;99.90
35258;DHT22;21385;50.878;8.050;2023-03-23T04:31:33;11.00;99.90
35258;DHT22;21385;50.878;8.050;2023-03-23T04:34:00;11.00;99.90
35258;DHT22;21385;50.878;8.050;2023-03-23T04:36:27;11.00;99.90
35258;DHT22;21385;50.878;8.050;2023-03-23T04:38:54;11.00;99.90
35258;DHT22;21385;50.878;8.050;2023-03-23T04:41:21;11.00;99.90
35258;DHT22;21385;50.878;8.050;2023-03-23T04:43:47;11.00;99.90
35258;DHT22;21385;50.878;8.050;2023-03-23T04:46:19;11.10;99.90
35258;DHT22;21385;50.878;8.050;2023-03-23T04:48:46;11.10;99.90
35258;DHT22;21385;50.878;8.050;2023-03-23T04:51:12;11.20;99.90
35258;DHT22;21385;50.878;8.050;2023-03-23T04:53:38;11.20;99.90
35258;DHT22;21385;50.878;8.050;2023-03-23T04:56:04;11.20;99.90
35258;DHT22;21385;50.878;8.050;2023-03-23T04:58:30;11.20;99.90
35258;DHT22;21385;50.878;8.050;2023-03-23T05:00:59;11.20;99.90
35258;DHT22;21385;50.878;8.050;2023-03-23T05:03:25;11.30;99.90
35258;DHT22;21385;50.878;8.050;2023-03-23T05:05:51;11.20;99.90
35258;DHT22;21385;50.878;8.050;2023-03-23T05:08:21;11.20;99.90
35258;DHT22;21385;50.878;8.050;2023-03-23T05:10:55;11.20;99.90
35258;DHT22;21385;50.878;8.050;2023-03-23T05:13:21;11.20;99.90
35258;DHT22;21385;50.878;8.050;2023-03-23T05:15:47;11.20;99.90
35258;DHT22;21385;50.878;8.050;2023-03-23T05:18:14;11.20;99.90
35258;DHT22;21385;50.878;8.050;2023-03-23T05:20:40;11.20;99.90
35258;DHT22;21385;50.878;8.050;2023-03-23T05:23:07;11.20;99.90
35258;DHT22;21385;50.878;8.050;2023-03-23T05:25:33;11.20;99.90
35258;DHT22;21385;50.878;8.050;2023-03-23T05:28:02;11.20;99.90
35258;DHT22;21385;50.878;8.050;2023-03-23T05:30:28;11.20;99.90
35258;DHT22;21385;50.878;8.050;2023-03-23T05:32:55;11.10;99.90
35258;DHT22;21385;50.878;8.050;2023-03-23T05:35:20;11.10;99.90
35258;DHT22;21385;50.878;8.050;2023-03-23T05:37:46;11.20;99.90
35258;DHT22;21385;50.878;8.050;2023-03-23T05:40:12;11.20;99.90
35258;DHT22;21385;50.878;8.050;2023-03-23T05:42:39;11.20;99.90
35258;DHT22;21385;50.878;8.050;2023-03-23T05:45:11;11.20;99.90
35258;DHT22;21385;50.878;8.050;2023-03-23T05:47:38;11.20;99.90
35258;DHT22;21385;50.878;8.050;2023-03-23T05:50:06;11.30;99.90
35258;DHT22;21385;50.878;8.050;2023-03-23T05:52:33;11.30;99.90
35258;DHT22;21385;50.878;8.050;2023-03-23T05:55:01;11.30;99.90
35258;DHT22;21385;50.878;8.050;2023-03-23T05:57:27;11.30;99.90
35258;DHT22;21385;50.878;8.050;2023-03-23T05:59:53;11.40;99.90
35258;DHT22;21385;50.878;8.050;2023-03-23T06:02:18;11.30;99.90
35258;DHT22;21385;50.878;8.050;2023-03-23T06:04:44;11.30;99.90
35258;DHT22;21385;50.878;8.050;2023-03-23T06:07:10;11.30;99.90
35258;DHT22;21385;50.878;8.050;2023-03-23T06:09:40;11.30;99.90
35258;DHT22;21385;50.878;8.050;2023-03-23T06:12:07;11.40;99.90
35258;DHT22;21385;50.878;8.050;2023-03-23T06:14:33;11.40;99.90
35258;DHT22;21385;50.878;8.050;2023-03-23T06:16:58;11.50;99.90
35258;DHT22;21385;50.878;8.050;2023-03-23T06:19:24;11.40;99.90
35258;DHT22;21385;50.878;8.050;2023-03-23T06:21:53;11.50;99.90
35258;DHT22;21385;50.878;8.050;2023-03-23T06:24:19;11.50;99.90
35258;DHT22;21385;50.878;8.050;2023-03-23T06:26:45;11.60;99.90
35258;DHT22;21385;50.878;8.050;2023-03-23T06:29:10;11.60;99.90
35258;DHT22;21385;50.878;8.050;2023-03-23T06:31:39;11.50;99.90
35258;DHT22;21385;50.878;8.050;2023-03-23T06:34:06;11.60;99.90
35258;DHT22;21385;50.878;8.050;2023-03-23T06:36:31;11.60;99.90
35258;DHT22;21385;50.878;8.050;2023-03-23T06:38:57;11.60;99.90
35258;DHT22;21385;50.878;8.050;2023-03-23T06:41:22;11.70;99.90
35258;DHT22;21385;50.878;8.050;2023-03-23T06:43:48;11.70;99.90
35258;DHT22;21385;50.878;8.050;2023-03-23T06:46:14;11.70;99.90
35258;DHT22;21385;50.878;8.050;2023-03-23T06:48:39;11.70;99.90
35258;DHT22;21385;50.878;8.050;2023-03-23T06:51:05;11.70;99.90
35258;DHT22;21385;50.878;8.050;2023-03-23T06:53:31;11.70;99.90
35258;DHT22;21385;50.878;8.050;2023-03-23T06:55:56;11.70;99.90
35258;DHT22;21385;50.878;8.050;2023-03-23T06:58:22;11.70;99.90
35258;DHT22;21385;50.878;8.050;2023-03-23T07:00:54;11.70;99.90
35258;DHT22;21385;50.878;8.050;2023-03-23T07:03:22;11.70;99.90
35258;DHT22;21385;50.878;8.050;2023-03-23T07:05:47;11.80;99.90
35258;DHT22;21385;50.878;8.050;2023-03-23T07:08:13;11.80;99.90
35258;DHT22;21385;50.878;8.050;2023-03-23T07:10:39;11.80;99.90
35258;DHT22;21385;50.878;8.050;2023-03-23T07:13:04;11.90;99.90
35258;DHT22;21385;50.878;8.050;2023-03-23T07:15:30;11.90;99.90
35258;DHT22;21385;50.878;8.050;2023-03-23T07:17:56;11.90;99.90
35258;DHT22;21385;50.878;8.050;2023-03-23T07:20:22;11.90;99.90
35258;DHT22;21385;50.878;8.050;2023-03-23T07:22:47;11.90;99.90
35258;DHT22;21385;50.878;8.050;2023-03-23T07:25:13;12.00;99.90
35258;DHT22;21385;50.878;8.050;2023-03-23T07:27:39;12.00;99.90
35258;DHT22;21385;50.878;8.050;2023-03-23T07:30:06;12.00;99.90
35258;DHT22;21385;50.878;8.050;2023-03-23T07:32:32;12.10;99.90
35258;DHT22;21385;50.878;8.050;2023-03-23T07:34:58;12.10;99.90
35258;DHT22;21385;50.878;8.050;2023-03-23T07:37:24;12.10;99.90
35258;DHT22;21385;50.878;8.050;2023-03-23T07:39:50;12.10;99.90
35258;DHT22;21385;50.878;8.050;2023-03-23T07:42:16;12.10;99.90
35258;DHT22;21385;50.878;8.050;2023-03-23T07:44:42;12.10;99.90
35258;DHT22;21385;50.878;8.050;2023-03-23T07:47:07;12.10;99.90
35258;DHT22;21385;50.878;8.050;2023-03-23T07:49:33;12.20;99.90
35258;DHT22;21385;50.878;8.050;2023-03-23T07:51:59;12.20;99.90
35258;DHT22;21385;50.878;8.050;2023-03-23T07:54:28;12.20;99.90
35258;DHT22;21385;50.878;8.050;2023-03-23T07:56:53;12.20;99.90
35258;DHT22;21385;50.878;8.050;2023-03-23T07:59:19;12.20;99.90
35258;DHT22;21385;50.878;8.050;2023-03-23T08:01:45;12.20;99.90
35258;DHT22;21385;50.878;8.050;2023-03-23T08:04:11;12.20;99.90
35258;DHT22;21385;50.878;8.050;2023-03-23T08:06:38;12.30;99.90
35258;DHT22;21385;50.878;8.050;2023-03-23T08:09:05;12.30;99.90
35258;DHT22;21385;50.878;8.050;2023-03-23T08:11:34;12.40;99.90
35258;DHT22;21385;50.878;8.050;2023-03-23T08:14:00;12.40;99.90
35258;DHT22;21385;50.878;8.050;2023-03-23T08:16:26;12.40;99.90
35258;DHT22;21385;50.878;8.050;2023-03-23T08:18:51;12.40;99.90
35258;DHT22;21385;50.878;8.050;2023-03-23T08:21:17;12.30;99.90
35258;DHT22;21385;50.878;8.050;2023-03-23T08:23:43;12.50;99.90
35258;DHT22;21385;50.878;8.050;2023-03-23T08:26:09;12.40;99.90
35258;DHT22;21385;50.878;8.050;2023-03-23T08:28:36;12.50;99.90
35258;DHT22;21385;50.878;8.050;2023-03-23T08:31:07;12.50;99.90
35258;DHT22;21385;50.878;8.050;2023-03-23T08:33:33;12.40;99.90
35258;DHT22;21385;50.878;8.050;2023-03-23T08:35:59;12.50;99.90
35258;DHT22;21385;50.878;8.050;2023-03-23T08:38:26;12.40;99.90
35258;DHT22;21385;50.878;8.050;2023-03-23T08:41:00;12.40;99.90
35258;DHT22;21385;50.878;8.050;2023-03-23T08:43:26;12.50;99.90
35258;DHT22;21385;50.878;8.050;2023-03-23T08:45:53;12.50;99.90
35258;DHT22;21385;50.878;8.050;2023-03-23T08:48:19;12.60;99.90
35258;DHT22;21385;50.878;8.050;2023-03-23T08:50:45;12.50;99.90
35258;DHT22;21385;50.878;8.050;2023-03-23T08:53:10;12.60;99.90
35258;DHT22;21385;50.878;8.050;2023-03-23T08:55:37;12.60;99.90
35258;DHT22;21385;50.878;8.050;2023-03-23T08:58:03;12.70;99.90
35258;DHT22;21385;50.878;8.050;2023-03-23T09:00:29;12.60;99.90
35258;DHT22;21385;50.878;8.050;2023-03-23T09:02:55;12.70;99.90
35258;DHT22;21385;50.878;8.050;2023-03-23T09:05:24;12.70;99.90
35258;DHT22;21385;50.878;8.050;2023-03-23T09:07:51;12.80;99.90
35258;DHT22;21385;50.878;8.050;2023-03-23T09:10:18;12.70;99.90
35258;DHT22;21385;50.878;8.050;2023-03-23T09:12:45;12.70;99.90
35258;DHT22;21385;50.878;8.050;2023-03-23T09:15:12;12.70;99.90
35258;DHT22;21385;50.878;8.050;2023-03-23T09:17:48;12.70;99.90
35258;DHT22;21385;50.878;8.050;2023-03-23T09:20:22;12.70;99.90
35258;DHT22;21385;50.878;8.050;2023-03-23T09:22:50;12.70;99.90
35258;DHT22;21385;50.878;8.050;2023-03-23T09:25:18;12.70;99.90
35258;DHT22;21385;50.878;8.050;2023-03-23T09:27:52;12.70;99.90
35258;DHT22;21385;50.878;8.050;2023-03-23T09:30:19;12.70;99.90
35258;DHT22;21385;50.878;8.050;2023-03-23T09:32:46;12.70;99.90
35258;DHT22;21385;50.878;8.050;2023-03-23T09:35:14;12.80;99.90
35258;DHT22;21385;50.878;8.050;2023-03-23T09:37:44;12.70;99.90
35258;DHT22;21385;50.878;8.050;2023-03-23T09:40:14;12.70;99.90
35258;DHT22;21385;50.878;8.050;2023-03-23T09:48:23;12.90;99.90
35258;DHT22;21385;50.878;8.050;2023-03-23T09:50:55;12.80;99.90
35258;DHT22;21385;50.878;8.050;2023-03-23T09:53:27;12.80;99.90
35258;DHT22;21385;50.878;8.050;2023-03-23T09:56:01;12.80;99.90
35258;DHT22;21385;50.878;8.050;2023-03-23T09:58:31;12.70;99.90
35258;DHT22;21385;50.878;8.050;2023-03-23T10:03:42;12.70;99.90
35258;DHT22;21385;50.878;8.050;2023-03-23T10:06:14;12.80;99.90
35258;DHT22;21385;50.878;8.050;2023-03-23T10:08:56;12.80;99.90
35258;DHT22;21385;50.878;8.050;2023-03-23T10:14:49;12.80;99.90
35258;DHT22;21385;50.878;8.050;2023-03-23T10:17:43;12.70;99.90
35258;DHT22;21385;50.878;8.050;2023-03-23T10:20:36;12.80;99.90
35258;DHT22;21385;50.878;8.050;2023-03-23T10:26:01;12.80;99.90
35258;DHT22;21385;50.878;8.050;2023-03-23T10:28:41;12.80;99.90
35258;DHT22;21385;50.878;8.050;2023-03-23T10:31:21;12.80;99.90
35258;DHT22;21385;50.878;8.050;2023-03-23T10:33:51;12.80;99.90
35258;DHT22;21385;50.878;8.050;2023-03-23T10:39:15;12.60;99.90
35258;DHT22;21385;50.878;8.050;2023-03-23T10:41:42;12.60;99.90
35258;DHT22;21385;50.878;8.050;2023-03-23T10:44:18;12.70;99.90
35258;DHT22;21385;50.878;8.050;2023-03-23T10:47:00;12.70;99.90
35258;DHT22;21385;50.878;8.050;2023-03-23T10:49:31;12.70;99.90
35258;DHT22;21385;50.878;8.050;2023-03-23T10:55:17;12.80;99.90
35258;DHT22;21385;50.878;8.050;2023-03-23T10:57:45;12.90;99.90
35258;DHT22;21385;50.878;8.050;2023-03-23T11:02:45;12.90;99.90
35258;DHT22;21385;50.878;8.050;2023-03-23T11:07:41;12.90;99.90
35258;DHT22;21385;50.878;8.050;2023-03-23T11:10:40;12.90;99.90
35258;DHT22;21385;50.878;8.050;2023-03-23T11:13:14;12.90;99.90
35258;DHT22;21385;50.878;8.050;2023-03-23T11:15:42;12.90;99.90
35258;DHT22;21385;50.878;8.050;2023-03-23T11:18:12;12.90;99.90
35258;DHT22;21385;50.878;8.050;2023-03-23T11:20:41;12.90;99.90
35258;DHT22;21385;50.878;8.050;2023-03-23T11:23:20;12.80;99.90
35258;DHT22;21385;50.878;8.050;2023-03-23T11:28:27;12.70;99.90
35258;DHT22;21385;50.878;8.050;2023-03-23T11:30:55;12.60;99.90
35258;DHT22;21385;50.878;8.050;2023-03-23T11:33:21;12.60;99.90
35258;DHT22;21385;50.878;8.050;2023-03-23T11:35:52;12.60;99.90
35258;DHT22;21385;50.878;8.050;2023-03-23T11:38:20;12.60;99.90
35258;DHT22;21385;50.878;8.050;2023-03-23T11:40:50;12.60;99.90
35258;DHT22;21385;50.878;8.050;2023-03-23T11:43:24;12.70;99.90
35258;DHT22;21385;50.878;8.050;2023-03-23T11:56:36;13.00;99.90
35258;DHT22;21385;50.878;8.050;2023-03-23T11:59:05;13.00;99.90
35258;DHT22;21385;50.878;8.050;2023-03-23T12:20:50;14.00;99.90
35258;DHT22;21385;50.878;8.050;2023-03-23T12:24:08;14.00;99.90
35258;DHT22;21385;50.878;8.050;2023-03-23T12:29:43;13.90;99.90
35258;DHT22;21385;50.878;8.050;2023-03-23T12:34:59;13.80;99.90
35258;DHT22;21385;50.878;8.050;2023-03-23T12:48:15;14.70;99.90
35258;DHT22;21385;50.878;8.050;2023-03-23T12:51:03;14.90;99.90
35258;DHT22;21385;50.878;8.050;2023-03-23T12:56:33;15.00;99.90
35258;DHT22;21385;50.878;8.050;2023-03-23T12:59:15;14.80;99.90
35258;DHT22;21385;50.878;8.050;2023-03-23T13:01:48;14.70;99.90
35258;DHT22;21385;50.878;8.050;2023-03-23T13:04:23;14.70;99.90
35258;DHT22;21385;50.878;8.050;2023-03-23T13:06:51;14.70;99.90
35258;DHT22;21385;50.878;8.050;2023-03-23T13:10:12;14.70;99.90
35258;DHT22;21385;50.878;8.050;2023-03-23T13:12:30;14.60;99.90
35258;DHT22;21385;50.878;8.050;2023-03-23T13:15:00;14.50;99.90
35258;DHT22;21385;50.878;8.050;2023-03-23T13:23:20;14.50;99.90
35258;DHT22;21385;50.878;8.050;2023-03-23T13:28:27;14.40;99.90
35258;DHT22;21385;50.878;8.050;2023-03-23T13:33:23;14.60;99.90
35258;DHT22;21385;50.878;8.050;2023-03-23T13:35:49;14.70;99.90
35258;DHT22;21385;50.878;8.050;2023-03-23T13:38:25;14.80;99.90
35258;DHT22;21385;50.878;8.050;2023-03-23T13:40:51;14.80;99.90
35258;DHT22;21385;50.878;8.050;2023-03-23T13:43:30;14.90;99.90
35258;DHT22;21385;50.878;8.050;2023-03-23T13:46:40;14.90;99.90
35258;DHT22;21385;50.878;8.050;2023-03-23T13:59:35;14.80;99.90
35258;DHT22;21385;50.878;8.050;2023-03-23T14:02:34;14.80;99.90
35258;DHT22;21385;50.878;8.050;2023-03-23T14:05:30;14.80;99.90
35258;DHT22;21385;50.878;8.050;2023-03-23T14:08:22;14.70;99.90
35258;DHT22;21385;50.878;8.050;2023-03-23T14:10:59;14.70;99.90
35258;DHT22;21385;50.878;8.050;2023-03-23T14:13:41;14.60;99.90
35258;DHT22;21385;50.878;8.050;2023-03-23T14:16:24;14.60;99.90
35258;DHT22;21385;50.878;8.050;2023-03-23T14:18:57;14.50;99.90
35258;DHT22;21385;50.878;8.050;2023-03-23T14:21:40;14.40;99.90
35258;DHT22;21385;50.878;8.050;2023-03-23T14:24:15;14.60;99.90
35258;DHT22;21385;50.878;8.050;2023-03-23T14:26:42;14.60;99.90
35258;DHT22;21385;50.878;8.050;2023-03-23T14:29:10;14.60;99.90
35258;DHT22;21385;50.878;8.050;2023-03-23T14:31:37;14.70;99.90
35258;DHT22;21385;50.878;8.050;2023-03-23T14:34:32;14.90;99.90
35258;DHT22;21385;50.878;8.050;2023-03-23T14:36:58;14.90;99.90
35258;DHT22;21385;50.878;8.050;2023-03-23T14:39:35;14.90;99.90
35258;DHT22;21385;50.878;8.050;2023-03-23T14:42:09;14.90;99.90
35258;DHT22;21385;50.878;8.050;2023-03-23T14:44:40;14.80;99.90
35258;DHT22;21385;50.878;8.050;2023-03-23T14:47:10;14.80;99.90
35258;DHT22;21385;50.878;8.050;2023-03-23T14:49:41;14.90;99.90
35258;DHT22;21385;50.878;8.050;2023-03-23T14:52:11;14.80;99.90
35258;DHT22;21385;50.878;8.050;2023-03-23T14:54:37;14.80;99.90
35258;DHT22;21385;50.878;8.050;2023-03-23T14:57:27;14.90;99.90
35258;DHT22;21385;50.878;8.050;2023-03-23T14:59:53;14.90;99.90
35258;DHT22;21385;50.878;8.050;2023-03-23T15:02:30;14.80;99.90
35258;DHT22;21385;50.878;8.050;2023-03-23T15:05:00;14.90;99.90
35258;DHT22;21385;50.878;8.050;2023-03-23T15:07:34;14.90;99.90
35258;DHT22;21385;50.878;8.050;2023-03-23T15:10:01;14.80;99.90
35258;DHT22;21385;50.878;8.050;2023-03-23T15:12:29;14.90;99.90
35258;DHT22;21385;50.878;8.050;2023-03-23T15:15:02;15.00;99.90
35258;DHT22;21385;50.878;8.050;2023-03-23T15:17:30;15.00;99.90
35258;DHT22;21385;50.878;8.050;2023-03-23T15:19:57;15.00;99.90
35258;DHT22;21385;50.878;8.050;2023-03-23T15:27:44;15.10;99.90
35258;DHT22;21385;50.878;8.050;2023-03-23T15:32:51;15.00;99.90
35258;DHT22;21385;50.878;8.050;2023-03-23T15:35:23;15.10;99.90
35258;DHT22;21385;50.878;8.050;2023-03-23T15:37:56;15.10;99.90
35258;DHT22;21385;50.878;8.050;2023-03-23T15:40:23;15.10;99.90
35258;DHT22;21385;50.878;8.050;2023-03-23T15:43:05;15.10;99.90
35258;DHT22;21385;50.878;8.050;2023-03-23T15:45:31;15.10;99.90
35258;DHT22;21385;50.878;8.050;2023-03-23T15:48:13;15.00;99.90
35258;DHT22;21385;50.878;8.050;2023-03-23T15:50:40;14.80;99.90
35258;DHT22;21385;50.878;8.050;2023-03-23T15:55:46;14.80;99.90
35258;DHT22;21385;50.878;8.050;2023-03-23T15:58:12;14.80;99.90
35258;DHT22;21385;50.878;8.050;2023-03-23T16:00:39;14.80;99.90
35258;DHT22;21385;50.878;8.050;2023-03-23T16:03:07;14.90;99.90
35258;DHT22;21385;50.878;8.050;2023-03-23T16:05:35;14.90;99.90
35258;DHT22;21385;50.878;8.050;2023-03-23T16:08:01;14.90;99.90
35258;DHT22;21385;50.878;8.050;2023-03-23T16:10:29;14.90;99.90
35258;DHT22;21385;50.878;8.050;2023-03-23T16:12:55;14.80;99.90
35258;DHT22;21385;50.878;8.050;2023-03-23T16:15:21;14.80;99.90
35258;DHT22;21385;50.878;8.050;2023-03-23T16:17:46;15.10;99.90
35258;DHT22;21385;50.878;8.050;2023-03-23T16:20:17;15.20;99.90
35258;DHT22;21385;50.878;8.050;2023-03-23T16:22:44;15.20;99.90
35258;DHT22;21385;50.878;8.050;2023-03-23T16:25:11;15.20;99.90
35258;DHT22;21385;50.878;8.050;2023-03-23T16:27:38;15.10;99.90
35258;DHT22;21385;50.878;8.050;2023-03-23T16:30:17;15.10;99.90
35258;DHT22;21385;50.878;8.050;2023-03-23T16:32:43;15.10;99.90
35258;DHT22;21385;50.878;8.050;2023-03-23T16:35:09;15.30;99.90
35258;DHT22;21385;50.878;8.050;2023-03-23T16:37:35;15.30;99.90
35258;DHT22;21385;50.878;8.050;2023-03-23T16:40:02;15.40;99.90
35258;DHT22;21385;50.878;8.050;2023-03-23T16:42:28;15.60;99.90
35258;DHT22;21385;50.878;8.050;2023-03-23T16:44:53;15.70;99.90
35258;DHT22;21385;50.878;8.050;2023-03-23T16:47:20;15.70;99.90
35258;DHT22;21385;50.878;8.050;2023-03-23T16:49:50;15.70;99.90
35258;DHT22;21385;50.878;8.050;2023-03-23T16:52:16;15.70;99.90
35258;DHT22;21385;50.878;8.050;2023-03-23T16:54:42;15.70;99.90
35258;DHT22;21385;50.878;8.050;2023-03-23T16:57:07;15.60;99.90
35258;DHT22;21385;50.878;8.050;2023-03-23T16:59:33;15.90;99.90
35258;DHT22;21385;50.878;8.050;2023-03-23T17:01:58;16.00;99.90
35258;DHT22;21385;50.878;8.050;2023-03-23T17:04:28;15.80;99.90
35258;DHT22;21385;50.878;8.050;2023-03-23T17:06:54;15.60;99.90
35258;DHT22;21385;50.878;8.050;2023-03-23T17:09:19;15.30;99.90
35258;DHT22;21385;50.878;8.050;2023-03-23T17:11:45;15.20;99.90
35258;DHT22;21385;50.878;8.050;2023-03-23T17:14:10;15.00;99.90
35258;DHT22;21385;50.878;8.050;2023-03-23T17:16:36;15.00;99.90
35258;DHT22;21385;50.878;8.050;2023-03-23T17:19:02;14.90;99.90
35258;DHT22;21385;50.878;8.050;2023-03-23T17:21:28;15.20;99.90
35258;DHT22;21385;50.878;8.050;2023-03-23T17:23:54;15.40;99.90
35258;DHT22;21385;50.878;8.050;2023-03-23T17:26:19;15.80;99.90
35258;DHT22;21385;50.878;8.050;2023-03-23T17:28:45;15.60;99.90
35258;DHT22;21385;50.878;8.050;2023-03-23T17:31:11;15.40;99.90
35258;DHT22;21385;50.878;8.050;2023-03-23T17:33:36;15.20;99.90
35258;DHT22;21385;50.878;8.050;2023-03-23T17:36:02;15.00;99.90
35258;DHT22;21385;50.878;8.050;2023-03-23T17:38:27;14.80;99.90
35258;DHT22;21385;50.878;8.050;2023-03-23T17:41:00;14.70;99.90
35258;DHT22;21385;50.878;8.050;2023-03-23T17:43:28;14.50;99.90
35258;DHT22;21385;50.878;8.050;2023-03-23T17:45:54;14.50;99.90
35258;DHT22;21385;50.878;8.050;2023-03-23T17:48:20;14.40;99.90
35258;DHT22;21385;50.878;8.050;2023-03-23T17:50:47;14.40;99.90
35258;DHT22;21385;50.878;8.050;2023-03-23T17:53:13;14.20;99.90
35258;DHT22;21385;50.878;8.050;2023-03-23T17:55:38;14.20;99.90